KTDZ/TDZ METAR and TAF weather

Enter ICAO airport designator
Station Type Date Time Source
KTDZ METAR 2020/09/20 01:53 UTC NOAA

KTDZ 200153Z AUTO 09004KT 10SM CLR 11/05 A3037 RMK AO2 SLP284 T01060050


Station Type Date Time Source
KTDZ Decoded METAR 2020/09/20 01:53 UTC NOAA

TOLEDO METCALF FIELD, OH, United States (KTDZ) 41-34N 83-29W 189M
Sep 19, 2020 - 09:53 PM EDT / 2020.09.20 0153 UTC
Wind: from the E (090 degrees) at 5 MPH (4 KT):0
Visibility: 10 mile(s):0
Sky conditions: clear
Temperature: 51.1 F (10.6 C)
Dew Point: 41.0 F (5.0 C)
Relative Humidity: 68%
Pressure (altimeter): 30.37 in. Hg (1028 hPa)
ob: KTDZ 200153Z AUTO 09004KT 10SM CLR 11/05 A3037 RMK AO2 SLP284 T01060050
cycle: 2

Station Type Date Time Source
KTDZ TAF UTC NOAA

Error!

Example: see airport list